sensor_id;sensor_type;location;lat;lon;timestamp;P1;durP1;ratioP1;P2;durP2;ratioP2
50906;SDS011;36882;27.680;85.304;2023-10-31T00:03:58;111.67;;;70.93;;
50906;SDS011;36882;27.680;85.304;2023-10-31T00:08:58;102.60;;;68.70;;
50906;SDS011;36882;27.680;85.304;2023-10-31T00:11:28;96.40;;;65.82;;
50906;SDS011;36882;27.680;85.304;2023-10-31T00:13:58;89.72;;;62.53;;
50906;SDS011;36882;27.680;85.304;2023-10-31T00:16:29;71.60;;;48.92;;
50906;SDS011;36882;27.680;85.304;2023-10-31T00:18:59;72.38;;;47.17;;
50906;SDS011;36882;27.680;85.304;2023-10-31T00:21:29;54.92;;;37.17;;
50906;SDS011;36882;27.680;85.304;2023-10-31T00:24:00;47.30;;;32.47;;
50906;SDS011;36882;27.680;85.304;2023-10-31T00:26:31;45.30;;;31.70;;
50906;SDS011;36882;27.680;85.304;2023-10-31T00:29:04;55.63;;;34.65;;
50906;SDS011;36882;27.680;85.304;2023-10-31T00:31:34;48.10;;;32.97;;
50906;SDS011;36882;27.680;85.304;2023-10-31T00:34:05;55.05;;;35.22;;
50906;SDS011;36882;27.680;85.304;2023-10-31T00:36:36;47.50;;;32.33;;
50906;SDS011;36882;27.680;85.304;2023-10-31T00:39:07;60.17;;;35.22;;
50906;SDS011;36882;27.680;85.304;2023-10-31T00:41:38;60.28;;;39.92;;
50906;SDS011;36882;27.680;85.304;2023-10-31T00:44:13;56.13;;;37.50;;
50906;SDS011;36882;27.680;85.304;2023-10-31T00:46:43;55.67;;;38.47;;
50906;SDS011;36882;27.680;85.304;2023-10-31T00:51:43;74.53;;;42.63;;
50906;SDS011;36882;27.680;85.304;2023-10-31T00:56:43;72.93;;;45.27;;
50906;SDS011;36882;27.680;85.304;2023-10-31T00:59:14;67.50;;;46.47;;
50906;SDS011;36882;27.680;85.304;2023-10-31T01:01:46;72.00;;;47.08;;
50906;SDS011;36882;27.680;85.304;2023-10-31T01:06:46;70.83;;;46.57;;
50906;SDS011;36882;27.680;85.304;2023-10-31T01:09:16;64.93;;;46.20;;
50906;SDS011;36882;27.680;85.304;2023-10-31T01:11:49;67.53;;;42.15;;
50906;SDS011;36882;27.680;85.304;2023-10-31T01:14:19;62.20;;;41.75;;
50906;SDS011;36882;27.680;85.304;2023-10-31T01:16:50;65.20;;;37.42;;
50906;SDS011;36882;27.680;85.304;2023-10-31T01:19:20;51.25;;;34.45;;
50906;SDS011;36882;27.680;85.304;2023-10-31T01:21:50;47.83;;;31.13;;
50906;SDS011;36882;27.680;85.304;2023-10-31T01:26:52;48.10;;;32.67;;
50906;SDS011;36882;27.680;85.304;2023-10-31T01:31:52;57.43;;;34.80;;
50906;SDS011;36882;27.680;85.304;2023-10-31T01:34:29;60.50;;;37.88;;
50906;SDS011;36882;27.680;85.304;2023-10-31T01:36:59;74.22;;;42.00;;
50906;SDS011;36882;27.680;85.304;2023-10-31T01:39:29;69.90;;;44.97;;
50906;SDS011;36882;27.680;85.304;2023-10-31T01:41:59;53.83;;;34.38;;
50906;SDS011;36882;27.680;85.304;2023-10-31T01:44:30;49.22;;;29.63;;
50906;SDS011;36882;27.680;85.304;2023-10-31T01:47:00;48.83;;;28.42;;
50906;SDS011;36882;27.680;85.304;2023-10-31T01:52:02;42.95;;;29.00;;
50906;SDS011;36882;27.680;85.304;2023-10-31T01:54:34;47.58;;;27.58;;
50906;SDS011;36882;27.680;85.304;2023-10-31T01:57:04;44.17;;;28.13;;
50906;SDS011;36882;27.680;85.304;2023-10-31T01:59:35;39.05;;;23.77;;
50906;SDS011;36882;27.680;85.304;2023-10-31T02:02:06;56.17;;;28.30;;
50906;SDS011;36882;27.680;85.304;2023-10-31T02:04:36;46.70;;;25.58;;
50906;SDS011;36882;27.680;85.304;2023-10-31T02:09:37;42.10;;;28.20;;
50906;SDS011;36882;27.680;85.304;2023-10-31T02:12:07;39.10;;;23.85;;
50906;SDS011;36882;27.680;85.304;2023-10-31T02:17:07;54.85;;;35.70;;
50906;SDS011;36882;27.680;85.304;2023-10-31T02:22:07;59.97;;;35.90;;
50906;SDS011;36882;27.680;85.304;2023-10-31T02:24:37;55.15;;;32.38;;
50906;SDS011;36882;27.680;85.304;2023-10-31T02:27:08;45.03;;;28.92;;
50906;SDS011;36882;27.680;85.304;2023-10-31T02:32:11;39.97;;;25.88;;
50906;SDS011;36882;27.680;85.304;2023-10-31T02:34:41;39.78;;;25.08;;
50906;SDS011;36882;27.680;85.304;2023-10-31T02:37:13;48.38;;;25.08;;
50906;SDS011;36882;27.680;85.304;2023-10-31T02:42:13;50.13;;;28.48;;
50906;SDS011;36882;27.680;85.304;2023-10-31T02:47:14;46.58;;;28.88;;
50906;SDS011;36882;27.680;85.304;2023-10-31T02:49:44;43.00;;;28.95;;
50906;SDS011;36882;27.680;85.304;2023-10-31T02:52:15;50.90;;;32.28;;
50906;SDS011;36882;27.680;85.304;2023-10-31T02:54:45;60.65;;;34.38;;
